createdAt,value
2019-05-12T00:01:12.577Z,95.50
2019-05-12T00:03:41.480Z,95.60
2019-05-12T00:06:10.327Z,95.40
2019-05-12T00:08:39.289Z,95.50
2019-05-12T00:11:08.956Z,95.70
2019-05-12T00:13:38.479Z,95.90
2019-05-12T00:16:08.775Z,95.80
2019-05-12T00:18:38.042Z,95.70
2019-05-12T00:21:08.784Z,95.90
2019-05-12T00:23:58.211Z,95.90
2019-05-12T00:26:28.300Z,96.10
2019-05-12T00:28:58.787Z,96.10
2019-05-12T00:31:28.158Z,96.10
2019-05-12T00:33:58.681Z,96.00
2019-05-12T00:36:29.240Z,96.20
2019-05-12T00:38:58.444Z,96.00
2019-05-12T00:41:28.374Z,96.10
2019-05-12T00:43:58.264Z,96.60
2019-05-12T00:46:27.816Z,96.30
2019-05-12T00:48:58.521Z,96.30
2019-05-12T00:51:28.893Z,96.50
2019-05-12T00:53:58.362Z,96.50
2019-05-12T00:56:28.471Z,96.50
2019-05-12T00:58:57.997Z,96.80
2019-05-12T01:01:28.544Z,96.50
2019-05-12T01:03:58.034Z,96.50
2019-05-12T01:06:28.297Z,96.60
2019-05-12T01:08:57.932Z,96.90
2019-05-12T01:11:28.645Z,96.80
2019-05-12T01:13:58.353Z,96.90
2019-05-12T01:16:28.904Z,97.10
2019-05-12T01:18:58.631Z,97.20
2019-05-12T01:21:28.739Z,97.30
2019-05-12T01:24:03.334Z,97.30
2019-05-12T01:26:28.568Z,97.50
2019-05-12T01:28:58.112Z,97.50
2019-05-12T01:31:29.474Z,98.00
2019-05-12T01:33:58.691Z,97.80
2019-05-12T01:36:28.720Z,97.90
2019-05-12T01:38:59.135Z,98.00
2019-05-12T01:41:28.769Z,97.90
2019-05-12T01:43:58.414Z,98.00
2019-05-12T01:46:28.841Z,98.00
2019-05-12T01:48:59.074Z,97.90
2019-05-12T01:51:28.508Z,98.10
2019-05-12T01:54:10.584Z,98.00
2019-05-12T01:56:28.913Z,98.20
2019-05-12T01:58:57.960Z,98.30
2019-05-12T02:01:28.062Z,98.20
2019-05-12T02:03:58.593Z,98.40
2019-05-12T02:06:27.957Z,98.30
2019-05-12T02:08:59.650Z,98.50
2019-05-12T02:11:31.872Z,98.60
2019-05-12T02:14:04.997Z,98.50
2019-05-12T02:16:34.104Z,98.70
2019-05-12T02:19:03.069Z,98.60
2019-05-12T02:21:31.963Z,98.50
2019-05-12T02:24:01.101Z,98.80
2019-05-12T02:26:29.889Z,98.70
2019-05-12T02:28:58.809Z,98.80
2019-05-12T02:31:29.473Z,98.80
2019-05-12T02:33:58.564Z,99.20
2019-05-12T02:36:27.703Z,99.10
2019-05-12T02:38:56.522Z,98.90
2019-05-12T02:41:26.146Z,99.00
2019-05-12T02:43:55.574Z,99.00
2019-05-12T02:46:25.569Z,99.10
2019-05-12T02:48:54.939Z,99.30
2019-05-12T02:51:24.899Z,99.30
2019-05-12T02:53:56.109Z,99.20
2019-05-12T02:56:26.136Z,99.50
2019-05-12T02:58:55.874Z,99.50
2019-05-12T03:01:28.233Z,99.60
2019-05-12T03:03:59.111Z,99.40
2019-05-12T03:06:29.378Z,99.40
2019-05-12T03:09:04.852Z,99.30
2019-05-12T03:11:35.518Z,99.60
2019-05-12T03:14:04.473Z,99.60
2019-05-12T03:16:34.996Z,99.80
2019-05-12T03:19:05.155Z,99.80
2019-05-12T03:21:35.566Z,99.80
2019-05-12T03:24:06.314Z,99.80
2019-05-12T03:26:35.826Z,99.90
2019-05-12T03:29:06.021Z,99.90
2019-05-12T03:31:39.944Z,99.90
2019-05-12T03:34:09.642Z,99.90
2019-05-12T03:36:42.147Z,99.90
2019-05-12T03:39:09.178Z,99.90
2019-05-12T03:41:38.265Z,99.90
2019-05-12T03:44:07.145Z,99.90
2019-05-12T03:46:36.060Z,99.90
2019-05-12T03:49:05.575Z,99.90
2019-05-12T03:51:35.366Z,99.90
2019-05-12T03:54:05.352Z,99.90
2019-05-12T03:56:35.097Z,99.90
2019-05-12T03:59:05.329Z,99.90
2019-05-12T04:01:36.676Z,99.90
2019-05-12T04:04:06.118Z,99.90
2019-05-12T04:06:35.212Z,99.90
2019-05-12T04:09:07.447Z,99.90
2019-05-12T04:11:36.720Z,99.90
2019-05-12T04:14:05.939Z,99.90
2019-05-12T04:16:36.540Z,99.90
2019-05-12T04:19:05.916Z,99.90
2019-05-12T04:21:35.627Z,99.90
2019-05-12T04:24:05.894Z,99.90
2019-05-12T04:26:36.575Z,99.90
2019-05-12T04:29:06.316Z,99.90
2019-05-12T04:31:36.316Z,99.90
2019-05-12T04:34:05.659Z,99.90
2019-05-12T04:36:35.827Z,99.90
2019-05-12T04:39:07.428Z,99.90
2019-05-12T04:41:36.818Z,99.90
2019-05-12T04:44:06.271Z,99.90
2019-05-12T04:46:35.566Z,99.90
2019-05-12T04:49:05.484Z,99.90
2019-05-12T04:51:35.243Z,99.90
2019-05-12T04:54:05.884Z,99.90
2019-05-12T04:56:36.006Z,99.90
2019-05-12T04:59:05.407Z,99.90
2019-05-12T05:01:35.519Z,99.90
2019-05-12T05:04:05.715Z,99.90
2019-05-12T05:06:35.558Z,99.90
2019-05-12T05:09:06.697Z,99.90
2019-05-12T05:11:35.920Z,99.90
2019-05-12T05:14:05.173Z,99.90
2019-05-12T05:16:34.816Z,99.90
2019-05-12T05:19:03.973Z,99.90
2019-05-12T05:21:34.420Z,99.90
2019-05-12T05:24:03.989Z,99.90
2019-05-12T05:26:36.710Z,99.90
2019-05-12T05:29:04.294Z,99.90
2019-05-12T05:31:33.978Z,99.90
2019-05-12T05:34:04.723Z,99.90
2019-05-12T05:36:34.712Z,99.90
2019-05-12T05:39:06.703Z,99.90
2019-05-12T05:41:40.074Z,99.90
2019-05-12T05:44:06.311Z,99.90
2019-05-12T05:46:38.943Z,99.90
2019-05-12T05:49:05.761Z,99.90
2019-05-12T05:51:39.634Z,99.90
2019-05-12T05:54:05.222Z,99.90
2019-05-12T05:56:42.375Z,99.90
2019-05-12T05:59:04.846Z,99.90
2019-05-12T06:01:34.713Z,99.90
2019-05-12T06:04:08.396Z,99.90
2019-05-12T06:06:34.675Z,99.90
2019-05-12T06:09:06.226Z,99.90
2019-05-12T06:11:35.193Z,99.90
2019-05-12T06:14:11.395Z,99.90
2019-05-12T06:16:35.037Z,99.90
2019-05-12T06:19:04.047Z,99.90
2019-05-12T06:21:36.299Z,99.90
2019-05-12T06:24:03.760Z,99.90
2019-05-12T06:26:35.685Z,99.90
2019-05-12T06:29:04.495Z,99.90
2019-05-12T06:31:33.957Z,99.90
2019-05-12T06:34:06.298Z,99.90
2019-05-12T06:36:34.157Z,99.90
2019-05-12T06:39:10.269Z,99.90
2019-05-12T06:41:36.786Z,99.90
2019-05-12T06:44:09.008Z,99.90
2019-05-12T06:46:36.610Z,99.80
2019-05-12T06:49:12.866Z,99.70
2019-05-12T06:51:36.344Z,99.50
2019-05-12T06:54:11.882Z,99.60
2019-05-12T06:56:36.268Z,99.50
2019-05-12T06:59:09.928Z,99.60
2019-05-12T07:01:35.747Z,99.50
2019-05-12T07:04:08.434Z,99.60
2019-05-12T07:06:35.758Z,99.70
2019-05-12T07:09:09.881Z,99.80
2019-05-12T07:11:44.827Z,99.60
2019-05-12T07:14:19.090Z,99.80
2019-05-12T07:16:39.100Z,99.50
2019-05-12T07:19:20.549Z,99.70
2019-05-12T07:21:38.529Z,99.70
2019-05-12T07:24:11.053Z,99.70
2019-05-12T07:26:37.983Z,99.90
2019-05-12T07:29:06.819Z,99.90
2019-05-12T07:31:35.914Z,99.90
2019-05-12T07:34:07.734Z,99.90
2019-05-12T07:36:35.750Z,99.90
2019-05-12T07:39:08.580Z,99.90
2019-05-12T07:41:42.311Z,99.90
2019-05-12T07:44:09.908Z,99.90
2019-05-12T07:46:39.601Z,99.90
2019-05-12T07:49:09.390Z,99.90
2019-05-12T07:51:40.633Z,99.90
2019-05-12T07:54:09.068Z,99.90
2019-05-12T07:56:40.828Z,99.90
2019-05-12T07:59:08.816Z,99.90
2019-05-12T08:01:46.645Z,99.90
2019-05-12T08:04:08.346Z,99.90
2019-05-12T08:06:41.713Z,99.90
2019-05-12T08:09:08.189Z,99.90
2019-05-12T08:11:38.901Z,99.90
2019-05-12T08:14:13.720Z,99.90
2019-05-12T08:16:38.563Z,99.90
2019-05-12T08:19:08.524Z,99.90
2019-05-12T08:21:43.711Z,99.90
2019-05-12T08:24:08.211Z,99.90
2019-05-12T08:26:37.086Z,99.90
2019-05-12T08:29:10.361Z,99.90
2019-05-12T08:31:40.413Z,99.90
2019-05-12T08:34:07.325Z,99.90
2019-05-12T08:36:36.226Z,99.90
2019-05-12T08:39:11.736Z,99.90
2019-05-12T08:41:37.834Z,99.90
2019-05-12T08:44:06.759Z,99.90
2019-05-12T08:46:35.565Z,99.90
2019-05-12T08:49:05.374Z,99.90
2019-05-12T08:51:34.638Z,99.90
2019-05-12T08:54:07.968Z,99.90
2019-05-12T08:56:34.171Z,99.90
2019-05-12T08:59:04.312Z,99.90
2019-05-12T09:01:34.441Z,99.90
2019-05-12T09:04:06.462Z,99.90
2019-05-12T09:06:34.995Z,99.90
2019-05-12T09:09:07.157Z,99.90
2019-05-12T09:11:36.093Z,99.90
2019-05-12T09:14:05.969Z,99.90
2019-05-12T09:16:35.305Z,99.30
2019-05-12T09:19:04.998Z,97.80
2019-05-12T09:21:36.960Z,97.20
2019-05-12T09:24:04.724Z,97.60
2019-05-12T09:26:34.374Z,96.40
2019-05-12T09:29:03.717Z,96.30
2019-05-12T09:31:33.695Z,96.90
2019-05-12T09:34:11.063Z,97.30
2019-05-12T09:36:34.072Z,97.50
2019-05-12T09:39:05.839Z,97.80
2019-05-12T09:41:42.749Z,98.10
2019-05-12T09:44:06.268Z,98.30
2019-05-12T09:46:37.607Z,98.50
2019-05-12T09:49:05.781Z,98.60
2019-05-12T09:51:41.243Z,98.70
2019-05-12T09:54:25.932Z,98.70
2019-05-12T09:56:59.364Z,98.70
2019-05-12T09:59:25.948Z,98.70
2019-05-12T10:01:55.010Z,98.60
2019-05-12T10:04:24.241Z,98.70
